sensor_id;sensor_type;location;lat;lon;timestamp;pressure;altitude;pressure_sealevel;temperature;humidity
80511;BME280;69840;53.040;8.600;2023-11-18T00:20:08;102406.69;;;17.35;29.72
80511;BME280;69840;53.040;8.600;2023-11-18T00:45:30;102414.69;;;17.02;30.13
80511;BME280;69840;53.040;8.600;2023-11-18T01:10:51;102440.56;;;16.86;31.52
80511;BME280;69840;53.040;8.600;2023-11-18T01:36:12;102452.22;;;18.53;29.98
80511;BME280;69840;53.040;8.600;2023-11-18T02:01:34;102450.25;;;19.24;29.26
80511;BME280;69840;53.040;8.600;2023-11-18T02:26:57;102432.44;;;19.31;30.16
80511;BME280;69840;53.040;8.600;2023-11-18T02:52:18;102418.22;;;20.12;28.79
80511;BME280;69840;53.040;8.600;2023-11-18T03:17:40;102424.59;;;19.07;30.10
80511;BME280;69840;53.040;8.600;2023-11-18T03:43:01;102425.06;;;19.85;29.87
80511;BME280;69840;53.040;8.600;2023-11-18T04:08:22;102418.09;;;19.61;30.09
80511;BME280;69840;53.040;8.600;2023-11-18T04:33:43;102395.31;;;20.16;29.64
80511;BME280;69840;53.040;8.600;2023-11-18T04:59:04;102380.66;;;19.98;29.80
80511;BME280;69840;53.040;8.600;2023-11-18T05:24:26;102350.72;;;20.51;29.03
80511;BME280;69840;53.040;8.600;2023-11-18T05:49:48;102342.59;;;20.66;28.82
80511;BME280;69840;53.040;8.600;2023-11-18T06:15:10;102334.88;;;20.56;28.61
80511;BME280;69840;53.040;8.600;2023-11-18T06:40:35;102349.38;;;20.41;29.75
80511;BME280;69840;53.040;8.600;2023-11-18T07:05:56;102357.31;;;20.49;29.81
80511;BME280;69840;53.040;8.600;2023-11-18T07:31:18;102368.72;;;20.72;30.41
80511;BME280;69840;53.040;8.600;2023-11-18T07:56:40;102349.69;;;20.16;31.37
80511;BME280;69840;53.040;8.600;2023-11-18T08:22:02;102337.09;;;19.51;32.43
80511;BME280;69840;53.040;8.600;2023-11-18T08:47:25;102320.31;;;20.29;31.04
80511;BME280;69840;53.040;8.600;2023-11-18T09:12:47;102306.44;;;19.60;31.72
80511;BME280;69840;53.040;8.600;2023-11-18T09:38:08;102293.00;;;21.18;29.65
80511;BME280;69840;53.040;8.600;2023-11-18T10:03:29;102236.72;;;21.51;29.44
80511;BME280;69840;53.040;8.600;2023-11-18T10:28:51;102205.56;;;21.22;30.44
80511;BME280;69840;53.040;8.600;2023-11-18T10:54:13;102178.75;;;22.29;28.98
80511;BME280;69840;53.040;8.600;2023-11-18T11:19:49;102136.06;;;22.13;29.06
80511;BME280;69840;53.040;8.600;2023-11-18T11:45:16;102084.34;;;22.68;28.25
80511;BME280;69840;53.040;8.600;2023-11-18T12:10:51;102049.28;;;22.75;28.26
80511;BME280;69840;53.040;8.600;2023-11-18T12:36:30;102062.63;;;22.63;28.52
80511;BME280;69840;53.040;8.600;2023-11-18T13:02:02;102036.53;;;22.44;28.90
80511;BME280;69840;53.040;8.600;2023-11-18T13:27:26;101950.44;;;21.98;29.47
80511;BME280;69840;53.040;8.600;2023-11-18T13:52:47;101911.91;;;21.97;29.92
80511;BME280;69840;53.040;8.600;2023-11-18T14:18:08;101901.97;;;22.56;29.23
80511;BME280;69840;53.040;8.600;2023-11-18T14:43:30;101843.78;;;21.90;31.21
80511;BME280;69840;53.040;8.600;2023-11-18T15:08:53;101813.44;;;21.70;30.96
80511;BME280;69840;53.040;8.600;2023-11-18T15:34:15;101777.78;;;21.75;31.56
80511;BME280;69840;53.040;8.600;2023-11-18T15:59:36;101713.16;;;21.37;32.21
80511;BME280;69840;53.040;8.600;2023-11-18T16:24:57;101647.53;;;20.73;33.21
80511;BME280;69840;53.040;8.600;2023-11-18T16:50:20;101608.53;;;20.38;34.23
80511;BME280;69840;53.040;8.600;2023-11-18T17:15:44;101513.00;;;20.68;33.61
80511;BME280;69840;53.040;8.600;2023-11-18T17:41:06;101466.59;;;20.35;33.97
80511;BME280;69840;53.040;8.600;2023-11-18T18:06:27;101392.16;;;19.97;35.32
80511;BME280;69840;53.040;8.600;2023-11-18T18:31:49;101365.81;;;20.39;34.88
80511;BME280;69840;53.040;8.600;2023-11-18T18:57:10;101316.53;;;20.89;33.99
80511;BME280;69840;53.040;8.600;2023-11-18T19:22:32;101214.53;;;18.98;37.24
80511;BME280;69840;53.040;8.600;2023-11-18T19:47:53;101179.56;;;20.58;35.65
80511;BME280;69840;53.040;8.600;2023-11-18T20:13:14;101127.00;;;21.72;33.17
80511;BME280;69840;53.040;8.600;2023-11-18T20:38:36;101049.44;;;20.72;35.62
80511;BME280;69840;53.040;8.600;2023-11-18T21:03:57;101004.31;;;22.05;33.31
80511;BME280;69840;53.040;8.600;2023-11-18T21:29:18;100958.34;;;21.00;35.14
80511;BME280;69840;53.040;8.600;2023-11-18T21:54:39;100903.69;;;22.47;33.17
80511;BME280;69840;53.040;8.600;2023-11-18T22:20:01;100836.03;;;21.80;33.75
80511;BME280;69840;53.040;8.600;2023-11-18T22:45:22;100795.22;;;22.96;32.76
80511;BME280;69840;53.040;8.600;2023-11-18T23:10:44;100776.69;;;23.55;32.40
80511;BME280;69840;53.040;8.600;2023-11-18T23:36:07;100731.75;;;23.88;31.61
